Time;durP1;ratioP1;P1;durP2;ratioP2;P2;SDS_P1;SDS_P2;PMS_P1;PMS_P2;Temp;Humidity;BMP_temperature;BMP_pressure;BME280_temperature;BME280_humidity;BME280_pressure;Samples;Min_cycle;Max_cycle;Signal;HPM_P1;HPM_P2
2022/04/21 00:00:23;;;;;;;10.27;7.93;;;;;;;4.96;65.94;94634.19;4158792;28;20061;-52
2022/04/21 00:02:25;;;;;;;11.40;8.50;;;;;;;4.99;66.01;94639.97;4173814;28;20064;-54
2022/04/21 00:04:26;;;;;;;11.45;8.60;;;;;;;5.04;66.55;94631.78;4174925;28;20245;-51
2022/04/21 00:06:28;;;;;;;11.73;8.25;;;;;;;5.08;65.72;94638.38;4175066;28;20045;-54
2022/04/21 00:08:30;;;;;;;12.48;8.63;;;;;;;5.09;66.17;94640.00;4165163;28;20110;-53
2022/04/21 00:10:32;;;;;;;11.00;7.78;;;;;;;5.05;65.41;94638.59;4174276;28;20056;-52
2022/04/21 00:12:34;;;;;;;10.52;7.40;;;;;;;5.02;65.86;94628.50;4174437;28;20064;-55
2022/04/21 00:14:36;;;;;;;9.27;7.50;;;;;;;5.00;65.74;94635.56;4142337;28;20440;-54
2022/04/21 00:16:37;;;;;;;11.63;8.38;;;;;;;4.95;66.04;94637.72;4142730;28;20647;-54
2022/04/21 00:18:39;;;;;;;11.20;8.35;;;;;;;4.87;67.12;94631.38;4141781;28;20158;-51
2022/04/21 00:20:41;;;;;;;10.70;8.35;;;;;;;4.86;66.30;94629.75;4147315;28;20045;-53
2022/04/21 00:25:23;;;;;;;10.48;7.88;;;;;;;4.90;66.54;94643.28;4122422;28;20050;-52
2022/04/21 00:27:24;;;;;;;12.50;8.60;;;;;;;4.86;66.75;94634.94;4120509;28;20115;-54
2022/04/21 00:29:26;;;;;;;9.88;7.40;;;;;;;4.77;66.74;94638.28;4107399;28;20446;-54
2022/04/21 00:31:28;;;;;;;14.15;8.45;;;;;;;4.73;66.68;94647.25;4155953;28;20053;-54
2022/04/21 00:33:31;;;;;;;10.85;7.57;;;;;;;4.73;67.16;94642.06;4157904;28;20457;-52
2022/04/21 00:35:33;;;;;;;10.60;8.18;;;;;;;4.73;66.30;94649.84;4160606;28;20072;-51
2022/04/21 00:37:49;;;;;;;11.50;7.68;;;;;;;4.77;66.66;94642.66;4161626;28;20053;-53
2022/04/21 00:39:50;;;;;;;11.18;8.15;;;;;;;4.76;66.66;94638.41;4161546;28;20045;-49
2022/04/21 00:41:56;;;;;;;10.13;7.82;;;;;;;4.78;66.86;94647.72;4161495;28;20053;-51
2022/04/21 00:43:57;;;;;;;11.45;7.80;;;;;;;4.72;66.92;94645.63;4161963;28;20050;-53
2022/04/21 00:46:00;;;;;;;10.90;7.90;;;;;;;4.72;66.74;94645.63;4165194;28;20134;-51
2022/04/21 00:48:04;;;;;;;10.55;8.00;;;;;;;4.75;67.51;94647.94;4157473;28;20684;-54
2022/04/21 00:50:09;;;;;;;11.07;8.15;;;;;;;4.76;66.98;94643.63;4157329;28;20124;-51
2022/04/21 00:52:11;;;;;;;13.02;8.20;;;;;;;4.75;67.03;94642.75;4160456;28;20065;-53
2022/04/21 00:54:13;;;;;;;11.73;8.80;;;;;;;4.75;66.91;94645.34;4159867;28;20107;-51
2022/04/21 00:56:15;;;;;;;11.65;8.25;;;;;;;4.69;67.01;94640.69;4175492;28;20063;-53
2022/04/21 00:58:17;;;;;;;11.30;8.32;;;;;;;4.70;67.62;94637.94;4165979;28;20092;-55
2022/04/21 01:00:19;;;;;;;11.43;8.63;;;;;;;4.70;67.67;94639.72;4161537;28;20763;-54
2022/04/21 01:04:41;;;;;;;14.77;9.15;;;;;;;4.51;67.00;94627.41;4162209;28;20053;-54
2022/04/21 01:06:43;;;;;;;13.50;8.98;;;;;;;4.54;67.10;94634.13;4177443;28;20053;-50
2022/04/21 01:08:44;;;;;;;12.90;9.15;;;;;;;4.59;67.39;94635.41;4175311;28;20060;-51
2022/04/21 01:10:46;;;;;;;13.00;8.52;;;;;;;4.58;67.18;94641.56;4177953;28;20045;-51
2022/04/21 01:12:49;;;;;;;12.73;9.13;;;;;;;4.58;67.00;94631.19;4177690;28;20049;-55
2022/04/21 01:14:51;;;;;;;13.27;9.00;;;;;;;4.60;66.89;94628.44;4176252;28;20053;-53
2022/04/21 01:16:53;;;;;;;14.32;9.27;;;;;;;4.60;66.37;94629.25;4175036;28;20118;-55
2022/04/21 01:18:56;;;;;;;14.27;8.80;;;;;;;4.54;66.43;94623.75;4161124;28;20049;-51
2022/04/21 01:20:57;;;;;;;14.43;9.97;;;;;;;4.50;66.68;94616.22;4160903;28;20075;-55
2022/04/21 01:22:59;;;;;;;13.25;9.60;;;;;;;4.43;67.55;94611.66;4159396;28;20118;-54
2022/04/21 01:25:01;;;;;;;14.43;9.93;;;;;;;4.45;67.63;94609.75;4161001;28;20088;-54
2022/04/21 01:27:03;;;;;;;15.65;9.68;;;;;;;4.48;67.46;94607.75;4161253;28;20065;-54
2022/04/21 01:29:05;;;;;;;15.65;9.63;;;;;;;4.51;67.12;94601.47;4161123;28;20110;-53
2022/04/21 01:31:07;;;;;;;16.83;10.90;;;;;;;4.47;66.57;94607.84;4161240;28;20045;-54
2022/04/21 01:33:09;;;;;;;14.82;9.82;;;;;;;4.42;67.26;94599.63;4148189;28;20058;-51
2022/04/21 01:35:11;;;;;;;15.57;10.40;;;;;;;4.35;67.03;94594.13;4160747;28;20049;-50
2022/04/21 01:41:54;;;;;;;14.52;9.60;;;;;;;4.43;66.99;94591.75;4160840;28;20057;-55
2022/04/21 01:43:55;;;;;;;14.27;10.48;;;;;;;4.45;67.25;94589.84;4160865;28;20406;-51
2022/04/21 01:45:57;;;;;;;19.23;10.20;;;;;;;4.43;66.89;94594.34;4160750;28;20053;-54
2022/04/21 01:47:59;;;;;;;15.48;10.18;;;;;;;4.42;67.29;94592.66;4159552;28;20119;-50
2022/04/21 01:50:07;;;;;;;14.65;10.25;;;;;;;4.45;67.35;94591.59;4158899;28;20519;-51
2022/04/21 01:52:08;;;;;;;16.50;9.93;;;;;;;4.41;67.36;94597.97;4158961;28;20296;-54
2022/04/21 01:54:10;;;;;;;13.82;9.73;;;;;;;4.41;66.77;94598.81;4159679;28;20045;-54
2022/04/21 01:56:12;;;;;;;14.27;9.90;;;;;;;4.41;66.91;94585.84;4160028;28;20661;-50
2022/04/21 01:58:14;;;;;;;14.82;9.35;;;;;;;4.40;67.40;94593.75;4160814;28;20080;-54
2022/04/21 02:00:16;;;;;;;14.38;9.40;;;;;;;4.42;67.38;94594.44;4160588;28;20061;-55
2022/04/21 02:02:18;;;;;;;13.07;9.07;;;;;;;4.43;67.17;94591.75;4160477;28;20140;-54
2022/04/21 02:04:20;;;;;;;11.93;8.73;;;;;;;4.40;67.27;94594.56;4160011;28;20517;-52
2022/04/21 02:06:22;;;;;;;12.55;9.18;;;;;;;4.36;67.14;94579.38;4174234;28;20102;-55
2022/04/21 02:08:23;;;;;;;13.10;9.43;;;;;;;4.37;67.82;94581.03;4175836;28;20053;-55
2022/04/21 02:10:25;;;;;;;13.52;9.73;;;;;;;4.40;67.72;94581.59;4176195;28;20049;-52
2022/04/21 02:12:30;;;;;;;16.60;9.75;;;;;;;4.41;67.38;94575.47;4177064;28;20130;-51
2022/04/21 02:14:33;;;;;;;13.05;9.15;;;;;;;4.40;67.01;94573.81;4160169;28;20129;-54
2022/04/21 02:16:35;;;;;;;13.90;10.48;;;;;;;4.34;67.85;94574.31;4160574;28;20061;-54
2022/04/21 02:18:37;;;;;;;14.95;10.32;;;;;;;4.30;67.44;94571.16;4159998;28;20061;-54
2022/04/21 02:20:38;;;;;;;15.68;10.35;;;;;;;4.20;67.25;94569.44;4172593;28;20107;-53
2022/04/21 02:22:41;;;;;;;14.38;9.75;;;;;;;4.11;67.81;94576.19;4159960;28;20119;-56
2022/04/21 02:24:42;;;;;;;17.15;10.50;;;;;;;4.14;68.41;94577.69;4159664;28;20053;-56
2022/04/21 02:26:45;;;;;;;12.52;9.95;;;;;;;4.21;68.04;94576.25;4160590;28;20823;-53
2022/04/21 02:28:47;;;;;;;13.53;10.70;;;;;;;4.18;67.75;94572.13;4160137;28;20061;-53
2022/04/21 02:30:49;;;;;;;14.57;10.73;;;;;;;4.17;67.91;94577.44;4159894;28;20107;-52
2022/04/21 02:32:51;;;;;;;14.50;11.05;;;;;;;4.21;68.30;94576.25;4159420;28;20757;-53
2022/04/21 02:34:55;;;;;;;13.07;10.25;;;;;;;4.30;68.04;94581.53;4160125;28;20119;-52
2022/04/21 02:36:57;;;;;;;16.70;13.63;;;;;;;4.36;67.59;94587.97;4159927;28;20295;-51
2022/04/21 02:38:59;;;;;;;17.85;12.27;;;;;;;4.39;66.91;94587.75;4158008;28;20065;-55
2022/04/21 02:41:01;;;;;;;17.17;13.55;;;;;;;4.41;66.72;94583.25;4160057;28;20148;-50
2022/04/21 02:43:03;;;;;;;15.95;12.45;;;;;;;4.44;67.06;94580.41;4160144;28;20088;-49
2022/04/21 02:45:07;;;;;;;13.45;10.70;;;;;;;4.45;66.43;94582.06;4172378;28;20052;-53
2022/04/21 02:47:09;;;;;;;12.85;10.35;;;;;;;4.48;66.22;94587.00;4172635;28;20482;-52
2022/04/21 02:49:11;;;;;;;14.07;9.68;;;;;;;4.53;66.12;94588.38;4156967;28;20690;-50
2022/04/21 02:51:12;;;;;;;14.82;9.50;;;;;;;4.48;66.40;94593.97;4169745;28;20075;-53
2022/04/21 02:53:14;;;;;;;12.93;9.40;;;;;;;4.43;66.75;94591.75;4158882;28;20099;-53
2022/04/21 02:57:36;;;;;;;15.05;10.07;;;;;;;4.40;67.38;94596.34;4159751;28;20551;-51
2022/04/21 02:59:40;;;;;;;14.35;9.75;;;;;;;4.38;67.51;94586.09;4157405;28;20045;-50
2022/04/21 03:01:41;;;;;;;12.23;9.45;;;;;;;4.38;67.34;94591.28;4158200;28;20057;-50
2022/04/21 03:03:43;;;;;;;12.35;9.68;;;;;;;4.39;67.10;94585.16;4159438;28;20049;-51
2022/04/21 03:05:45;;;;;;;14.93;9.88;;;;;;;4.40;67.05;94597.16;4159928;28;20111;-52
2022/04/21 03:07:47;;;;;;;16.27;10.88;;;;;;;4.44;66.58;94593.38;4168256;28;20053;-50
2022/04/21 03:09:49;;;;;;;16.83;9.52;;;;;;;4.42;66.55;94589.25;4176222;28;20619;-50
2022/04/21 03:11:51;;;;;;;16.30;9.77;;;;;;;4.40;66.45;94588.56;4173361;28;20099;-54
2022/04/21 03:13:54;;;;;;;16.58;9.18;;;;;;;4.37;66.15;94587.03;4190966;28;20468;-51
2022/04/21 03:15:55;;;;;;;13.40;9.70;;;;;;;4.36;67.29;94585.38;4159324;28;20110;-51
2022/04/21 03:17:57;;;;;;;18.13;10.45;;;;;;;4.38;67.18;94583.50;4170493;28;20056;-52
2022/04/21 03:19:58;;;;;;;14.60;10.68;;;;;;;4.39;66.68;94584.31;4176106;28;20052;-49
2022/04/21 03:24:21;;;;;;;14.38;10.55;;;;;;;4.31;67.27;94582.34;4158558;28;20052;-49
2022/04/21 03:26:22;;;;;;;22.33;13.00;;;;;;;4.29;67.15;94577.28;4159305;28;20053;-51
2022/04/21 03:28:24;;;;;;;16.60;9.70;;;;;;;4.31;66.84;94579.75;4159567;28;20049;-50
2022/04/21 03:30:26;;;;;;;15.00;10.38;;;;;;;4.23;67.98;94579.53;4167043;28;20140;-52
2022/04/21 03:32:28;;;;;;;16.77;10.93;;;;;;;4.19;67.70;94585.91;4159273;28;20280;-50
2022/04/21 03:34:31;;;;;;;16.90;10.93;;;;;;;4.17;67.46;94585.22;4158713;28;20049;-54
2022/04/21 03:36:33;;;;;;;15.10;10.25;;;;;;;4.15;67.74;94579.34;4158814;28;20111;-52
2022/04/21 03:38:37;;;;;;;17.27;11.20;;;;;;;4.15;67.79;94581.91;4157931;28;20457;-52
2022/04/21 03:40:40;;;;;;;12.90;9.98;;;;;;;4.16;67.36;94589.59;4159324;28;20107;-53
2022/04/21 03:42:42;;;;;;;16.17;11.73;;;;;;;4.15;67.85;94584.50;4159023;28;20111;-52
2022/04/21 03:44:44;;;;;;;15.63;10.55;;;;;;;4.19;67.58;94578.13;4159365;28;20068;-53
2022/04/21 03:46:45;;;;;;;15.07;10.10;;;;;;;4.23;67.58;94585.53;4159059;28;20117;-53
2022/04/21 03:48:47;;;;;;;12.65;9.60;;;;;;;4.32;67.14;94583.97;4152984;28;20123;-51
2022/04/21 03:50:49;;;;;;;16.17;11.32;;;;;;;4.33;66.95;94579.63;4159276;28;20103;-47
2022/04/21 03:52:50;;;;;;;17.42;10.32;;;;;;;4.37;66.91;94579.25;4159489;28;20352;-51
2022/04/21 03:54:52;;;;;;;19.27;10.57;;;;;;;4.31;66.96;94579.75;4152190;28;20046;-50
2022/04/21 03:56:54;;;;;;;13.27;9.93;;;;;;;4.29;67.31;94579.88;4158899;28;20103;-51
2022/04/21 03:58:57;;;;;;;15.30;10.63;;;;;;;4.33;67.74;94588.25;4159219;28;20045;-56
2022/04/21 04:00:58;;;;;;;15.35;10.90;;;;;;;4.36;67.89;94585.38;4157545;28;20061;-51
2022/04/21 04:03:00;;;;;;;16.33;9.73;;;;;;;4.33;67.79;94585.66;4158679;28;20057;-51
2022/04/21 04:05:02;;;;;;;16.00;11.15;;;;;;;4.41;67.72;94588.44;4159017;28;20076;-53
2022/04/21 04:11:46;;;;;;;14.52;10.60;;;;;;;4.72;66.61;94584.16;4159137;28;20076;-55
2022/04/21 04:13:48;;;;;;;14.77;10.23;;;;;;;4.72;66.54;94583.34;4157505;28;20084;-50
2022/04/21 04:15:51;;;;;;;15.32;10.38;;;;;;;4.75;66.07;94592.63;4158707;28;20474;-52
2022/04/21 04:17:53;;;;;;;16.05;10.23;;;;;;;4.74;66.51;94589.22;4158715;28;20119;-53
2022/04/21 04:19:55;;;;;;;15.98;10.73;;;;;;;4.77;66.63;94590.75;4169803;28;20053;-56
2022/04/21 04:21:57;;;;;;;14.57;10.35;;;;;;;4.87;66.70;94584.66;4161009;28;20485;-53
2022/04/21 04:23:58;;;;;;;16.52;10.32;;;;;;;4.98;66.39;94585.56;4157211;28;20053;-55
2022/04/21 04:26:00;;;;;;;15.57;10.35;;;;;;;5.07;66.39;94587.38;4158972;28;20103;-53
2022/04/21 04:28:04;;;;;;;16.15;10.63;;;;;;;4.99;66.23;94577.66;4158845;28;20050;-55
2022/04/21 04:30:08;;;;;;;18.13;11.15;;;;;;;4.78;65.56;94579.44;4158484;28;20616;-54
2022/04/21 04:32:09;;;;;;;;;;;;;;;4.44;67.68;94575.22;4157991;28;20606;-54
2022/04/21 04:34:11;;;;;;;24.45;11.35;;;;;;;4.44;68.62;94571.81;4158492;28;19924;-52
2022/04/21 04:36:16;;;;;;;19.35;12.65;;;;;;;4.53;68.04;94573.63;4158588;28;20057;-53
2022/04/21 04:38:17;;;;;;;21.33;11.38;;;;;;;4.67;67.71;94575.13;4157305;28;20050;-50
2022/04/21 04:40:19;;;;;;;16.75;11.18;;;;;;;4.80;66.53;94573.16;4158865;28;20057;-54
2022/04/21 04:42:22;;;;;;;18.27;11.77;;;;;;;4.93;67.00;94573.78;4172372;28;20660;-53
2022/04/21 04:44:24;;;;;;;20.63;11.65;;;;;;;4.97;66.44;94574.34;4175089;28;20102;-57
2022/04/21 04:46:35;;;;;;;17.52;12.38;;;;;;;4.91;66.64;94574.88;4174966;28;20111;-55
2022/04/21 04:48:37;;;;;;;18.38;12.60;;;;;;;4.67;67.38;94580.31;4144525;28;20473;-51
2022/04/21 04:50:40;;;;;;;17.77;12.88;;;;;;;4.48;68.28;94587.00;4142400;28;20477;-52
2022/04/21 04:52:43;;;;;;;;;;;;;;;4.33;68.74;94590.00;4160538;28;20513;-54
2022/04/21 04:54:44;;;;;;;21.58;12.27;;;;;;;4.38;69.02;94590.47;4158466;28;20451;-52
2022/04/21 04:56:47;;;;;;;19.58;12.38;;;;;;;4.45;68.79;94600.22;4172871;28;20053;-50
2022/04/21 04:58:49;;;;;;;21.80;12.80;;;;;;;4.62;69.39;94595.41;4158247;28;20120;-49
2022/04/21 05:00:51;;;;;;;18.63;12.80;;;;;;;4.82;68.18;94589.44;4158355;28;20127;-53
2022/04/21 05:02:53;;;;;;;21.92;15.00;;;;;;;4.95;68.20;94586.63;4159689;28;20088;-53
2022/04/21 05:04:54;;;;;;;20.95;14.15;;;;;;;4.95;67.97;94594.44;4158314;28;20496;-55
2022/04/21 05:06:57;;;;;;;68.18;34.78;;;;;;;5.03;68.07;94594.59;4158366;28;20372;-55
2022/04/21 05:08:59;;;;;;;22.70;14.68;;;;;;;5.08;67.58;94594.22;4157181;28;20136;-52
2022/04/21 05:11:01;;;;;;;20.85;13.38;;;;;;;4.99;67.03;94590.63;4158326;28;20357;-53
2022/04/21 05:13:02;;;;;;;25.58;14.52;;;;;;;5.02;66.95;94597.34;4158236;28;20065;-54
2022/04/21 05:15:06;;;;;;;21.92;13.77;;;;;;;5.11;66.91;94593.97;4162024;28;20053;-52
2022/04/21 05:17:08;;;;;;;23.65;14.48;;;;;;;5.23;67.59;94599.91;4175146;28;20064;-51
2022/04/21 05:19:11;;;;;;;20.67;13.45;;;;;;;5.27;67.44;94602.13;4174432;28;20473;-53
2022/04/21 05:21:15;;;;;;;19.15;14.05;;;;;;;5.37;66.96;94601.34;4166210;28;20061;-53
2022/04/21 05:23:17;;;;;;;24.70;16.15;;;;;;;5.51;66.86;94601.81;4159257;28;20069;-55
2022/04/21 05:25:18;;;;;;;23.85;14.75;;;;;;;5.52;66.57;94605.22;4160891;28;20049;-51
2022/04/21 05:27:21;;;;;;;21.38;14.60;;;;;;;5.60;66.78;94608.00;4163734;28;20045;-49
2022/04/21 05:31:43;;;;;;;22.90;14.45;;;;;;;5.81;66.28;94607.09;4160531;28;20136;-54
2022/04/21 05:33:45;;;;;;;19.30;14.10;;;;;;;5.97;65.12;94610.06;4158978;28;20129;-55
2022/04/21 05:35:47;;;;;;;20.40;14.32;;;;;;;6.10;65.17;94608.03;4160509;28;20119;-54
2022/04/21 05:37:49;;;;;;;24.33;14.40;;;;;;;6.29;65.10;94601.22;4159684;28;20300;-54
2022/04/21 05:39:51;;;;;;;22.08;14.00;;;;;;;6.46;64.29;94603.16;4161044;28;20060;-54
2022/04/21 05:41:54;;;;;;;20.73;14.20;;;;;;;6.28;64.28;94604.78;4160684;28;20057;-53
2022/04/21 05:43:56;;;;;;;20.35;14.35;;;;;;;6.22;64.50;94606.16;4160976;28;20488;-52
2022/04/21 05:45:58;;;;;;;18.80;13.55;;;;;;;6.10;64.29;94597.63;4168922;28;20049;-52
2022/04/21 05:48:01;;;;;;;21.73;14.07;;;;;;;5.92;64.88;94601.81;4168067;28;20123;-53
2022/04/21 05:50:03;;;;;;;22.00;14.50;;;;;;;5.85;64.54;94604.13;4161127;28;20053;-54
2022/04/21 05:52:06;;;;;;;22.00;13.75;;;;;;;5.85;64.91;94598.94;4161037;28;20148;-55
2022/04/21 05:54:08;;;;;;;21.00;12.05;;;;;;;5.90;63.68;94594.16;4157394;28;20080;-56
2022/04/21 05:56:10;;;;;;;18.98;13.00;;;;;;;6.02;64.35;94591.44;4156455;28;20057;-55
2022/04/21 05:58:12;;;;;;;19.30;13.65;;;;;;;6.09;63.93;94595.19;4159905;28;20041;-52
2022/04/21 06:00:14;;;;;;;20.58;14.35;;;;;;;6.18;63.32;94593.56;4160038;28;20057;-57
2022/04/21 06:02:16;;;;;;;22.15;15.65;;;;;;;6.20;63.71;94591.66;4160090;28;20514;-56
2022/04/21 06:04:21;;;;;;;20.42;14.80;;;;;;;6.05;64.11;94596.41;4160497;28;20141;-54
2022/04/21 06:06:22;;;;;;;21.40;14.43;;;;;;;5.99;64.58;94594.34;4160746;28;20045;-53
2022/04/21 06:08:24;;;;;;;21.45;14.32;;;;;;;5.92;64.70;94594.84;4165830;28;20424;-52
2022/04/21 06:10:26;;;;;;;24.92;14.95;;;;;;;6.05;64.88;94586.00;4176834;28;20057;-50
2022/04/21 06:12:28;;;;;;;22.35;14.70;;;;;;;6.03;63.91;94587.91;4177098;28;20082;-50
2022/04/21 06:14:30;;;;;;;23.00;14.05;;;;;;;5.99;64.76;94591.75;4176775;28;20331;-54
2022/04/21 06:16:31;;;;;;;28.15;16.27;;;;;;;6.09;64.53;94595.19;4176688;28;20049;-55
2022/04/21 06:18:33;;;;;;;79.53;42.10;;;;;;;6.25;64.07;94594.66;4175249;28;20083;-52
2022/04/21 06:20:35;;;;;;;32.67;19.42;;;;;;;6.40;64.08;94593.28;4169853;28;20099;-56
2022/04/21 06:22:37;;;;;;;20.33;15.05;;;;;;;6.54;63.28;94594.69;4142947;28;20062;-54
2022/04/21 06:24:39;;;;;;;20.27;14.02;;;;;;;6.67;62.96;94591.81;4159263;28;20625;-57
2022/04/21 06:26:42;;;;;;;21.98;14.15;;;;;;;6.70;62.08;94597.53;4168027;28;20479;-55
2022/04/21 06:28:44;;;;;;;16.95;12.50;;;;;;;6.72;61.61;94597.41;4160116;28;20113;-54
2022/04/21 06:30:46;;;;;;;19.63;12.35;;;;;;;6.78;61.55;94589.06;4160444;28;20050;-52
2022/04/21 06:32:51;;;;;;;18.25;12.45;;;;;;;6.73;61.16;94586.03;4159760;28;20456;-52
2022/04/21 06:34:54;;;;;;;19.13;12.40;;;;;;;6.76;61.71;94593.56;4160026;28;20087;-54
2022/04/21 06:36:56;;;;;;;19.13;12.18;;;;;;;6.77;61.05;94595.19;4159941;28;20053;-55
2022/04/21 06:38:57;;;;;;;18.38;12.50;;;;;;;6.81;62.09;94587.94;4158641;28;20497;-55
2022/04/21 06:40:59;;;;;;;16.48;12.07;;;;;;;6.91;61.75;94584.38;4160097;28;20053;-50
2022/04/21 06:43:03;;;;;;;15.77;11.82;;;;;;;7.08;60.32;94585.44;4159887;28;20079;-53
2022/04/21 06:49:52;;;;;;;13.98;10.77;;;;;;;7.10;60.06;94591.31;4144191;28;20056;-56
2022/04/21 06:51:54;;;;;;;14.27;10.15;;;;;;;7.20;59.88;94588.69;4143976;28;20073;-59
2022/04/21 06:53:56;;;;;;;15.75;10.55;;;;;;;7.19;59.12;94579.25;4142434;28;20049;-59
2022/04/21 06:55:57;;;;;;;12.98;10.23;;;;;;;7.26;59.10;94584.72;4150551;28;20752;-50
2022/04/21 06:58:00;;;;;;;15.13;10.15;;;;;;;7.31;59.32;94585.94;4157589;28;20058;-55
2022/04/21 07:00:03;;;;;;;13.82;10.63;;;;;;;7.47;58.84;94582.72;4159478;28;20119;-58
2022/04/21 07:02:05;;;;;;;32.25;24.67;;;;;;;7.58;57.82;94586.94;4158893;28;20115;-55
2022/04/21 07:04:07;;;;;;;12.60;9.82;;;;;;;7.64;57.88;94586.34;4159384;28;20136;-52
2022/04/21 07:06:10;;;;;;;13.13;9.88;;;;;;;7.62;57.27;94583.06;4159799;28;20548;-52
2022/04/21 07:08:13;;;;;;;19.25;11.25;;;;;;;7.63;57.72;94595.13;4158210;28;20110;-50
2022/04/21 07:10:16;;;;;;;15.02;10.93;;;;;;;7.69;58.14;94597.16;4160704;28;20379;-51
2022/04/21 07:12:18;;;;;;;15.25;10.25;;;;;;;7.77;57.46;94589.44;4158980;28;20130;-53
2022/04/21 07:14:20;;;;;;;16.88;12.13;;;;;;;7.78;57.54;94595.47;4160189;28;20149;-53
2022/04/21 07:16:22;;;;;;;17.88;11.90;;;;;;;7.68;57.75;94595.53;4160400;28;20046;-54
2022/04/21 07:18:23;;;;;;;17.88;12.75;;;;;;;7.70;57.39;94595.38;4159586;28;20084;-48
2022/04/21 07:20:25;;;;;;;22.40;12.82;;;;;;;7.32;58.33;94598.00;4158515;28;20053;-51
2022/04/21 07:22:27;;;;;;;19.55;12.68;;;;;;;6.80;59.94;94602.75;4159086;28;20141;-51
2022/04/21 07:24:28;;;;;;;17.80;12.40;;;;;;;6.68;60.44;94603.84;4165160;28;20126;-54
2022/04/21 07:26:30;;;;;;;25.73;14.35;;;;;;;6.80;60.01;94612.31;4176044;28;20130;-55
2022/04/21 07:28:32;;;;;;;16.30;11.88;;;;;;;7.01;59.30;94614.78;4163343;28;20111;-52
2022/04/21 07:30:34;;;;;;;20.27;12.80;;;;;;;6.79;59.60;94629.72;4159471;28;20049;-45
2022/04/21 07:32:36;;;;;;;21.05;12.07;;;;;;;6.77;59.95;94618.63;4159620;28;20056;-50
2022/04/21 07:34:38;;;;;;;18.00;11.85;;;;;;;6.72;60.67;94626.84;4142660;28;20056;-55
2022/04/21 07:36:42;;;;;;;17.55;11.50;;;;;;;6.96;59.86;94623.00;4143255;28;20064;-59
2022/04/21 07:38:44;;;;;;;15.40;11.65;;;;;;;7.23;58.96;94619.69;4160040;28;20053;-59
2022/04/21 07:40:50;;;;;;;23.02;12.13;;;;;;;7.44;58.18;94622.06;4167931;28;20579;-55
2022/04/21 07:42:53;;;;;;;18.15;12.27;;;;;;;7.46;57.53;94609.72;4175541;28;20523;-57
2022/04/21 07:44:57;;;;;;;22.15;12.27;;;;;;;7.32;57.81;94611.00;4174935;28;20136;-54
2022/04/21 07:46:59;;;;;;;;;;;;;;;7.33;58.86;94606.63;4174714;28;20087;-56
2022/04/21 07:51:20;;;;;;;20.90;12.77;;;;;;;8.06;57.38;94604.13;4171226;28;20446;-59
2022/04/21 07:53:22;;;;;;;18.63;12.73;;;;;;;8.26;57.14;94610.06;4159376;28;20064;-57
2022/04/21 07:55:25;;;;;;;19.95;12.18;;;;;;;8.49;56.20;94610.47;4165422;28;20052;-57
2022/04/21 07:57:27;;;;;;;16.60;12.15;;;;;;;8.72;56.15;94604.81;4167020;28;20064;-52
2022/04/21 07:59:28;;;;;;;17.42;11.82;;;;;;;8.90;55.22;94599.56;4163771;28;20413;-57
2022/04/21 08:01:31;;;;;;;19.00;12.93;;;;;;;8.91;54.94;94596.00;4158267;28;20045;-52
2022/04/21 08:03:37;;;;;;;20.35;13.80;;;;;;;8.84;54.70;94600.19;4157330;28;20057;-56
2022/04/21 08:05:41;;;;;;;16.58;12.30;;;;;;;8.68;55.31;94604.28;4150971;28;20065;-48
2022/04/21 08:07:44;;;;;;;19.17;12.10;;;;;;;8.65;55.12;94602.00;4158216;28;20502;-51
2022/04/21 08:09:52;;;;;;;20.73;13.70;;;;;;;8.08;56.27;94601.38;4159350;28;20489;-56
2022/04/21 08:11:53;;;;;;;17.45;13.20;;;;;;;7.97;57.04;94610.22;4158897;28;20146;-54
2022/04/21 08:13:56;;;;;;;17.40;13.50;;;;;;;8.11;57.12;94601.91;4158443;28;20057;-57
2022/04/21 08:15:58;;;;;;;19.15;12.60;;;;;;;8.21;55.82;94602.66;4170100;28;20061;-55
2022/04/21 08:18:04;;;;;;;19.50;14.15;;;;;;;8.30;57.00;94597.53;4171159;28;20063;-52
2022/04/21 08:20:09;;;;;;;22.73;14.35;;;;;;;8.02;56.79;94605.38;4157511;28;20764;-59
2022/04/21 08:22:11;;;;;;;20.02;13.52;;;;;;;8.11;57.18;94604.53;4158300;28;20053;-54
2022/04/21 08:33:54;;;;;;;23.90;15.20;;;;;;;9.11;55.61;94604.47;4157254;28;20386;-52
2022/04/21 08:35:59;;;;;;;22.88;14.35;;;;;;;9.25;54.73;94601.31;4158553;28;20714;-57
2022/04/21 08:38:00;;;;;;;19.13;14.43;;;;;;;9.36;55.08;94601.06;4157676;28;20138;-52
2022/04/21 08:40:03;;;;;;;26.67;16.65;;;;;;;9.55;54.25;94594.81;4158943;28;20057;-57
2022/04/21 08:42:10;;;;;;;23.25;16.13;;;;;;;9.16;54.22;94599.59;4158908;28;20049;-58
2022/04/21 08:44:20;;;;;;;32.90;20.65;;;;;;;8.93;55.24;94594.06;4162507;28;20139;-55
2022/04/21 08:46:25;;;;;;;27.40;16.80;;;;;;;9.14;55.97;94598.94;4142509;28;20049;-55
2022/04/21 08:48:27;;;;;;;21.98;15.85;;;;;;;9.38;54.76;94599.13;4156020;28;20081;-57
2022/04/21 08:50:29;;;;;;;26.15;15.43;;;;;;;9.37;54.65;94592.22;4168538;28;20045;-56
2022/04/21 08:52:33;;;;;;;24.85;17.75;;;;;;;9.30;54.45;94588.59;4158206;28;20065;-54
2022/04/21 08:54:35;;;;;;;24.10;15.82;;;;;;;9.09;54.93;94588.13;4157414;28;20179;-56
2022/04/21 08:56:38;;;;;;;21.50;14.95;;;;;;;9.25;55.58;94577.78;4160045;28;20046;-54
2022/04/21 08:58:40;;;;;;;24.02;17.75;;;;;;;9.40;54.81;94578.06;4159800;28;20075;-51
2022/04/21 09:00:43;;;;;;;22.42;16.23;;;;;;;9.55;55.29;94583.50;4164657;28;20061;-52
2022/04/21 09:02:47;;;;;;;31.48;17.23;;;;;;;9.73;55.97;94584.25;4162593;28;20049;-48
2022/04/21 09:04:48;;;;;;;29.15;16.17;;;;;;;9.91;54.60;94585.97;4162461;28;20049;-50
2022/04/21 09:06:50;;;;;;;28.23;16.50;;;;;;;9.76;54.63;94583.13;4170525;28;20056;-47
2022/04/21 09:09:21;;;;;;;22.20;15.80;;;;;;;9.30;54.89;94580.75;4161438;28;20049;-46
2022/04/21 09:11:24;;;;;;;26.08;16.50;;;;;;;8.94;56.08;94583.44;4162374;28;20041;-50
2022/04/21 09:13:37;;;;;;;25.05;15.60;;;;;;;8.75;56.79;94581.00;4162532;28;20057;-47
2022/04/21 09:15:43;;;;;;;25.02;16.30;;;;;;;8.37;57.20;94581.13;4170990;28;20569;-48
2022/04/21 09:17:51;;;;;;;24.17;15.70;;;;;;;8.37;57.77;94578.53;4178795;28;20052;-50
2022/04/21 09:19:59;;;;;;;26.33;15.60;;;;;;;8.66;57.71;94571.47;4176894;28;20529;-48
2022/04/21 09:22:01;;;;;;;26.10;15.73;;;;;;;8.97;56.96;94570.09;4162553;28;20613;-47
2022/04/21 09:24:24;;;;;;;29.00;16.02;;;;;;;9.16;56.33;94569.09;4161176;28;20510;-48
2022/04/21 09:26:26;;;;;;;27.27;15.27;;;;;;;9.43;56.67;94570.69;4176934;28;20102;-49
2022/04/21 09:28:32;;;;;;;20.42;14.43;;;;;;;9.67;54.54;94571.81;4163592;28;20057;-47
2022/04/21 09:30:36;;;;;;;22.52;13.45;;;;;;;9.85;55.12;94574.31;4162372;28;20049;-48
2022/04/21 09:32:40;;;;;;;24.00;14.40;;;;;;;10.01;54.44;94573.56;4162273;28;20103;-50
2022/04/21 09:34:45;;;;;;;27.30;15.43;;;;;;;10.01;53.73;94569.16;4163002;28;20095;-53
2022/04/21 09:36:47;;;;;;;24.33;14.57;;;;;;;10.12;53.60;94575.91;4169160;28;20111;-48
2022/04/21 09:39:05;;;;;;;51.45;21.42;;;;;;;10.07;53.23;94577.34;4169194;28;20052;-49
2022/04/21 09:41:11;;;;;;;25.17;15.82;;;;;;;9.80;53.27;94577.41;4162203;28;20115;-49
2022/04/21 09:43:13;;;;;;;32.83;18.85;;;;;;;9.69;54.38;94590.78;4162206;28;20111;-50
2022/04/21 09:47:34;;;;;;;23.40;14.52;;;;;;;9.41;55.65;94579.69;4172885;28;20455;-53
2022/04/21 09:49:43;;;;;;;26.23;15.70;;;;;;;9.64;55.44;94580.78;4161749;28;20049;-51
2022/04/21 09:51:45;;;;;;;28.23;16.25;;;;;;;9.62;54.97;94581.91;4162376;28;20108;-51
2022/04/21 09:53:56;;;;;;;30.45;17.48;;;;;;;9.33;54.96;94572.59;4160774;28;20164;-49
2022/04/21 09:56:08;;;;;;;31.80;16.80;;;;;;;9.32;56.25;94573.59;4162020;28;20091;-52
2022/04/21 09:58:10;;;;;;;24.92;16.50;;;;;;;9.43;55.72;94573.31;4162138;28;20057;-51
2022/04/21 10:00:14;;;;;;;28.00;16.30;;;;;;;9.65;55.62;94581.59;4160224;28;20478;-50
2022/04/21 10:02:16;;;;;;;26.60;16.30;;;;;;;10.02;56.46;94575.19;4160010;28;20046;-49
2022/04/21 10:04:19;;;;;;;31.48;18.10;;;;;;;10.21;54.43;94569.69;4166107;28;20123;-53
2022/04/21 10:06:22;;;;;;;26.80;17.92;;;;;;;10.45;55.15;94568.13;4164075;28;20067;-50
2022/04/21 10:08:24;;;;;;;26.85;17.85;;;;;;;10.64;54.27;94567.84;4159900;28;20143;-50
2022/04/21 10:10:26;;;;;;;30.33;18.88;;;;;;;10.45;53.70;94563.75;4161783;28;20100;-54
2022/04/21 10:12:29;;;;;;;31.02;19.73;;;;;;;9.93;54.42;94560.47;4177207;28;20107;-51
2022/04/21 10:14:31;;;;;;;31.65;19.90;;;;;;;9.38;56.44;94567.75;4170515;28;20061;-50